createdAt,value
2018-11-06T00:01:34.284Z,95470.00
2018-11-06T00:04:05.703Z,95470.00
2018-11-06T00:06:36.621Z,95479.00
2018-11-06T00:09:09.415Z,95482.00
2018-11-06T00:11:40.588Z,95478.00
2018-11-06T00:14:11.374Z,95472.00
2018-11-06T00:16:42.749Z,95469.00
2018-11-06T00:19:13.524Z,95475.00
2018-11-06T00:21:44.438Z,95479.00
2018-11-06T00:24:15.289Z,95478.00
2018-11-06T00:26:46.443Z,95476.00
2018-11-06T00:29:17.220Z,95471.00
2018-11-06T00:31:48.077Z,95467.00
2018-11-06T00:34:19.084Z,95471.00
2018-11-06T00:36:49.930Z,95474.00
2018-11-06T00:39:20.944Z,95472.00
2018-11-06T00:41:51.835Z,95467.00
2018-11-06T00:44:22.713Z,95467.00
2018-11-06T00:46:53.474Z,95472.00
2018-11-06T00:49:24.237Z,95469.00
2018-11-06T00:51:55.298Z,95467.00
2018-11-06T00:54:26.006Z,95466.00
2018-11-06T00:56:56.844Z,95468.00
2018-11-06T00:59:27.590Z,95467.00
2018-11-06T01:01:58.504Z,95471.00
2018-11-06T01:04:29.434Z,95464.00
2018-11-06T01:07:00.293Z,95466.00
2018-11-06T01:09:31.164Z,95465.00
2018-11-06T01:12:01.990Z,95466.00
2018-11-06T01:14:32.777Z,95462.00
2018-11-06T01:17:03.645Z,95463.00
2018-11-06T01:19:34.479Z,95463.00
2018-11-06T01:22:05.274Z,95461.00
2018-11-06T01:24:36.041Z,95455.00
2018-11-06T01:27:07.526Z,95458.00
2018-11-06T01:29:38.329Z,95458.00
2018-11-06T01:32:09.350Z,95463.00
2018-11-06T01:34:40.078Z,95450.00
2018-11-06T01:37:11.075Z,95457.00
2018-11-06T01:39:41.891Z,95456.00
2018-11-06T01:42:12.830Z,95452.00
2018-11-06T01:44:43.886Z,95450.00
2018-11-06T01:47:14.676Z,95450.00
2018-11-06T01:49:45.533Z,95452.00
2018-11-06T01:52:16.386Z,95454.00
2018-11-06T01:54:47.255Z,95455.00
2018-11-06T01:57:18.156Z,95458.00
2018-11-06T01:59:49.065Z,95455.00
2018-11-06T02:02:20.027Z,95453.00
2018-11-06T02:04:50.878Z,95451.00
2018-11-06T02:07:21.906Z,95456.00
2018-11-06T02:09:52.739Z,95448.00
2018-11-06T02:12:24.641Z,95449.00
2018-11-06T02:14:55.821Z,95447.00
2018-11-06T02:17:26.833Z,95451.00
2018-11-06T02:19:57.796Z,95454.00
2018-11-06T02:22:28.581Z,95453.00
2018-11-06T02:24:59.441Z,95443.00
2018-11-06T02:27:30.230Z,95451.00
2018-11-06T02:30:01.171Z,95455.00
2018-11-06T02:32:32.180Z,95459.00
2018-11-06T02:35:02.978Z,95458.00
2018-11-06T02:37:34.056Z,95459.00
2018-11-06T02:40:04.953Z,95458.00
2018-11-06T02:42:35.895Z,95455.00
2018-11-06T02:45:07.113Z,95455.00
2018-11-06T02:47:38.139Z,95456.00
2018-11-06T02:50:10.111Z,95455.00
2018-11-06T02:52:41.317Z,95454.00
2018-11-06T02:55:12.482Z,95451.00
2018-11-06T02:57:43.860Z,95450.00
2018-11-06T03:00:16.536Z,95447.00
2018-11-06T03:02:48.487Z,95450.00
2018-11-06T03:05:19.596Z,95450.00
2018-11-06T03:07:50.509Z,95443.00
2018-11-06T03:10:21.533Z,95454.00
2018-11-06T03:12:52.625Z,95450.00
2018-11-06T03:15:23.616Z,95455.00
2018-11-06T03:17:54.485Z,95448.00
2018-11-06T03:20:25.475Z,95455.00
2018-11-06T03:22:56.403Z,95451.00
2018-11-06T03:25:27.208Z,95454.00
2018-11-06T03:27:57.971Z,95456.00
2018-11-06T03:30:28.904Z,95453.00
2018-11-06T03:32:59.740Z,95451.00
2018-11-06T03:35:30.979Z,95451.00
2018-11-06T03:38:01.708Z,95455.00
2018-11-06T03:40:32.459Z,95452.00
2018-11-06T03:43:03.189Z,95459.00
2018-11-06T03:45:33.920Z,95459.00
2018-11-06T03:48:04.716Z,95459.00
2018-11-06T03:50:35.653Z,95460.00
2018-11-06T03:53:06.738Z,95461.00
2018-11-06T03:55:37.825Z,95461.00
2018-11-06T03:58:08.772Z,95466.00
2018-11-06T04:00:39.523Z,95468.00
2018-11-06T04:03:10.378Z,95475.00
2018-11-06T04:05:41.181Z,95474.00
2018-11-06T04:08:12.043Z,95474.00
2018-11-06T04:10:43.171Z,95475.00
2018-11-06T04:13:14.162Z,95463.00
2018-11-06T04:15:45.063Z,95473.00
2018-11-06T04:18:15.907Z,95468.00
2018-11-06T04:20:47.097Z,95471.00
2018-11-06T04:23:18.014Z,95480.00
2018-11-06T04:25:48.915Z,95478.00
2018-11-06T04:28:19.864Z,95479.00
2018-11-06T04:30:50.910Z,95477.00
2018-11-06T04:33:21.832Z,95473.00
2018-11-06T04:35:53.418Z,95476.00
2018-11-06T04:38:24.398Z,95469.00
2018-11-06T04:40:55.444Z,95477.00
2018-11-06T04:43:26.349Z,95474.00
2018-11-06T04:45:57.398Z,95474.00
2018-11-06T04:48:28.490Z,95479.00
2018-11-06T04:50:59.694Z,95475.00
2018-11-06T04:53:33.029Z,95482.00
2018-11-06T04:56:05.034Z,95481.00
2018-11-06T04:58:35.810Z,95485.00
2018-11-06T05:01:07.216Z,95490.00
2018-11-06T05:03:42.054Z,95488.00
2018-11-06T05:06:12.982Z,95483.00
2018-11-06T05:08:44.394Z,95486.00
2018-11-06T05:11:15.750Z,95486.00
2018-11-06T05:13:46.743Z,95486.00
2018-11-06T05:16:17.668Z,95485.00
2018-11-06T05:18:48.509Z,95484.00
2018-11-06T05:21:19.640Z,95486.00
2018-11-06T05:23:50.556Z,95493.00
2018-11-06T05:26:21.686Z,95493.00
2018-11-06T05:28:52.613Z,95488.00
2018-11-06T05:31:23.822Z,95488.00
2018-11-06T05:33:54.843Z,95492.00
2018-11-06T05:36:25.747Z,95496.00
2018-11-06T05:38:57.018Z,95494.00
2018-11-06T05:41:28.038Z,95493.00
2018-11-06T05:43:59.422Z,95492.00
2018-11-06T05:46:30.507Z,95489.00
2018-11-06T05:49:01.408Z,95489.00
2018-11-06T05:51:32.734Z,95490.00
2018-11-06T05:54:03.768Z,95484.00
2018-11-06T05:56:34.759Z,95487.00
2018-11-06T05:59:05.961Z,95486.00
2018-11-06T06:01:37.025Z,95480.00
2018-11-06T06:04:08.239Z,95485.00
2018-11-06T06:06:39.179Z,95490.00
2018-11-06T06:09:10.268Z,95486.00
2018-11-06T06:11:41.175Z,95489.00
2018-11-06T06:14:12.215Z,95491.00
2018-11-06T06:16:43.100Z,95486.00
2018-11-06T06:19:14.063Z,95486.00
2018-11-06T06:21:45.271Z,95486.00
2018-11-06T06:24:16.245Z,95492.00
2018-11-06T06:26:47.575Z,95491.00
2018-11-06T06:29:18.561Z,95486.00
2018-11-06T06:31:49.644Z,95482.00
2018-11-06T06:34:20.618Z,95485.00
2018-11-06T06:36:51.755Z,95485.00
2018-11-06T06:39:22.565Z,95492.00
2018-11-06T06:41:53.426Z,95488.00
2018-11-06T06:44:24.507Z,95487.00
2018-11-06T06:46:55.486Z,95485.00
2018-11-06T06:49:26.551Z,95484.00
2018-11-06T06:51:57.964Z,95484.00
2018-11-06T06:54:29.496Z,95486.00
2018-11-06T06:57:01.032Z,95484.00
2018-11-06T06:59:32.516Z,95484.00
2018-11-06T07:02:04.573Z,95481.00
2018-11-06T07:04:36.080Z,95481.00
2018-11-06T07:07:07.238Z,95479.00
2018-11-06T07:09:38.430Z,95481.00
2018-11-06T07:12:10.007Z,95482.00
2018-11-06T07:14:40.853Z,95480.00
2018-11-06T07:17:12.576Z,95475.00
2018-11-06T07:19:43.523Z,95473.00
2018-11-06T07:22:14.908Z,95478.00
2018-11-06T07:24:46.127Z,95472.00
2018-11-06T07:27:17.015Z,95476.00
2018-11-06T07:29:48.014Z,95474.00
2018-11-06T07:32:19.021Z,95481.00
2018-11-06T07:34:50.420Z,95480.00
2018-11-06T07:37:21.715Z,95481.00
2018-11-06T07:39:52.857Z,95482.00
2018-11-06T07:42:23.712Z,95469.00
2018-11-06T07:44:54.975Z,95468.00
2018-11-06T07:47:26.585Z,95466.00
2018-11-06T07:49:57.685Z,95465.00
2018-11-06T07:52:28.592Z,95460.00
2018-11-06T07:54:59.570Z,95463.00
2018-11-06T07:57:30.531Z,95465.00
2018-11-06T08:00:01.563Z,95464.00
2018-11-06T08:02:32.570Z,95463.00
2018-11-06T08:05:03.673Z,95460.00
2018-11-06T08:07:34.772Z,95458.00
2018-11-06T08:10:06.609Z,95454.00
2018-11-06T08:12:37.709Z,95454.00
2018-11-06T08:15:09.812Z,95452.00
2018-11-06T08:17:41.044Z,95455.00
2018-11-06T08:20:12.309Z,95455.00
2018-11-06T08:22:43.397Z,95456.00
2018-11-06T08:25:15.428Z,95461.00
2018-11-06T08:27:46.996Z,95459.00
2018-11-06T08:30:17.959Z,95461.00
2018-11-06T08:32:48.896Z,95455.00
2018-11-06T08:35:19.790Z,95452.00
2018-11-06T08:37:51.143Z,95445.00
2018-11-06T08:40:22.152Z,95451.00
2018-11-06T08:42:53.491Z,95452.00
2018-11-06T08:45:24.385Z,95453.00
2018-11-06T08:47:55.442Z,95449.00
2018-11-06T08:50:26.979Z,95439.00
2018-11-06T08:52:58.005Z,95447.00
2018-11-06T08:55:28.916Z,95442.00
2018-11-06T08:57:59.911Z,95441.00
2018-11-06T09:00:30.817Z,95447.00
2018-11-06T09:03:01.832Z,95446.00
2018-11-06T09:05:33.071Z,95442.00
2018-11-06T09:08:04.054Z,95439.00
2018-11-06T09:10:35.102Z,95433.00
2018-11-06T09:13:06.149Z,95430.00
2018-11-06T09:15:37.087Z,95427.00
2018-11-06T09:18:08.133Z,95422.00
2018-11-06T09:20:39.135Z,95420.00
2018-11-06T09:23:10.119Z,95423.00
2018-11-06T09:25:41.092Z,95419.00
2018-11-06T09:28:12.171Z,95417.00
2018-11-06T09:30:43.274Z,95420.00
2018-11-06T09:33:14.199Z,95412.00
2018-11-06T09:35:45.213Z,95407.00
2018-11-06T09:38:16.402Z,95402.00
2018-11-06T09:40:47.434Z,95397.00
2018-11-06T09:43:18.628Z,95386.00
2018-11-06T09:45:49.623Z,95382.00
2018-11-06T09:48:20.712Z,95381.00
2018-11-06T09:50:51.723Z,95380.00
2018-11-06T09:53:23.002Z,95373.00
2018-11-06T09:55:54.046Z,95375.00
2018-11-06T09:58:25.011Z,95369.00
2018-11-06T10:00:56.069Z,95366.00
2018-11-06T10:03:27.061Z,95367.00
2018-11-06T10:05:57.999Z,95367.00
2018-11-06T10:08:29.315Z,95357.00
2018-11-06T10:11:00.730Z,95351.00
2018-11-06T10:13:31.548Z,95352.00
2018-11-06T10:16:02.646Z,95345.00
2018-11-06T10:18:33.539Z,95344.00
2018-11-06T10:21:04.438Z,95342.00
2018-11-06T10:23:35.414Z,95334.00
2018-11-06T10:26:06.626Z,95330.00
2018-11-06T10:28:37.681Z,95332.00
2018-11-06T10:31:08.598Z,95327.00
2018-11-06T10:33:39.463Z,95325.00
2018-11-06T10:36:10.543Z,95326.00
2018-11-06T10:38:41.736Z,95322.00
2018-11-06T10:41:12.854Z,95324.00
2018-11-06T10:43:43.849Z,95318.00
2018-11-06T10:46:15.038Z,95316.00
2018-11-06T10:48:45.966Z,95317.00
2018-11-06T10:51:17.253Z,95316.00
2018-11-06T10:53:48.337Z,95306.00
2018-11-06T10:56:19.609Z,95307.00
2018-11-06T10:58:50.626Z,95301.00
2018-11-06T11:01:26.873Z,95301.00
2018-11-06T11:04:17.451Z,95294.00
2018-11-06T11:06:48.633Z,95290.00
2018-11-06T11:09:19.667Z,95284.00
2018-11-06T11:11:50.702Z,95277.00
2018-11-06T11:14:21.667Z,95276.00
2018-11-06T11:16:52.663Z,95276.00
2018-11-06T11:19:23.697Z,95274.00
2018-11-06T11:21:54.630Z,95270.00
2018-11-06T11:24:25.610Z,95262.00
2018-11-06T11:26:56.661Z,95264.00
2018-11-06T11:29:27.662Z,95262.00
2018-11-06T11:31:58.855Z,95263.00
2018-11-06T11:34:30.061Z,95257.00
2018-11-06T11:37:00.829Z,95253.00
2018-11-06T11:39:31.719Z,95254.00
2018-11-06T11:42:02.582Z,95253.00
2018-11-06T11:44:33.576Z,95254.00
2018-11-06T11:47:04.623Z,95251.00
2018-11-06T11:49:35.687Z,95248.00
2018-11-06T11:52:06.539Z,95246.00
2018-11-06T11:54:37.730Z,95240.00
2018-11-06T11:57:08.726Z,95231.00
2018-11-06T11:59:39.798Z,95226.00
2018-11-06T12:02:10.755Z,95226.00
2018-11-06T12:04:41.737Z,95223.00
2018-11-06T12:07:12.774Z,95225.00
2018-11-06T12:09:43.887Z,95222.00
2018-11-06T12:12:14.786Z,95214.00
2018-11-06T12:14:46.097Z,95211.00
2018-11-06T12:17:17.105Z,95213.00
2018-11-06T12:19:48.141Z,95214.00
2018-11-06T12:22:19.115Z,95208.00
2018-11-06T12:24:50.360Z,95208.00
2018-11-06T12:27:21.296Z,95209.00
2018-11-06T12:29:52.269Z,95194.00
2018-11-06T12:32:23.083Z,95199.00
2018-11-06T12:34:54.178Z,95198.00
2018-11-06T12:37:25.047Z,95202.00
2018-11-06T12:39:56.025Z,95197.00
2018-11-06T12:42:26.959Z,95184.00
2018-11-06T12:44:57.891Z,95191.00
2018-11-06T12:47:28.916Z,95195.00
2018-11-06T12:50:00.009Z,95187.00
2018-11-06T12:52:30.981Z,95192.00
2018-11-06T12:55:01.934Z,95191.00
2018-11-06T12:57:32.971Z,95191.00
2018-11-06T13:00:04.022Z,95188.00
2018-11-06T13:02:35.131Z,95187.00
2018-11-06T13:05:06.491Z,95191.00
2018-11-06T13:07:38.183Z,95189.00
2018-11-06T13:10:09.955Z,95183.00
2018-11-06T13:12:41.512Z,95191.00
2018-11-06T13:15:12.867Z,95186.00
2018-11-06T13:17:43.909Z,95191.00
2018-11-06T13:20:16.272Z,95195.00
2018-11-06T13:22:47.189Z,95180.00
2018-11-06T13:25:18.394Z,95193.00
2018-11-06T13:27:49.243Z,95182.00
2018-11-06T13:30:20.552Z,95195.00
2018-11-06T13:32:51.561Z,95188.00
2018-11-06T13:35:22.667Z,95189.00
2018-11-06T13:37:53.592Z,95189.00
2018-11-06T13:40:24.542Z,95188.00
2018-11-06T13:42:55.763Z,95196.00
2018-11-06T13:45:27.207Z,95191.00
2018-11-06T13:47:58.045Z,95194.00
2018-11-06T13:50:28.913Z,95204.00
2018-11-06T13:52:59.830Z,95206.00
2018-11-06T13:55:30.937Z,95192.00
2018-11-06T13:58:02.280Z,95199.00
2018-11-06T14:00:33.306Z,95201.00
2018-11-06T14:03:04.871Z,95201.00
2018-11-06T14:05:36.234Z,95199.00
2018-11-06T14:08:07.604Z,95193.00
2018-11-06T14:10:38.572Z,95196.00
2018-11-06T14:13:09.458Z,95205.00
2018-11-06T14:15:40.447Z,95200.00
2018-11-06T14:18:11.426Z,95200.00
2018-11-06T14:20:42.436Z,95203.00
2018-11-06T14:23:13.370Z,95191.00
2018-11-06T14:25:44.299Z,95199.00
2018-11-06T14:28:15.334Z,95193.00
2018-11-06T14:30:46.505Z,95201.00
2018-11-06T14:33:17.408Z,95205.00
2018-11-06T14:35:48.486Z,95207.00
2018-11-06T14:38:19.522Z,95207.00
2018-11-06T14:40:50.472Z,95215.00
2018-11-06T14:43:21.460Z,95215.00
2018-11-06T14:45:52.542Z,95220.00
2018-11-06T14:48:23.741Z,95214.00
2018-11-06T14:50:54.790Z,95210.00
2018-11-06T14:53:25.725Z,95217.00
2018-11-06T14:55:56.868Z,95212.00
2018-11-06T14:58:27.911Z,95223.00
2018-11-06T15:00:58.867Z,95224.00
2018-11-06T15:03:29.804Z,95224.00
2018-11-06T15:06:01.027Z,95225.00
2018-11-06T15:08:32.216Z,95225.00
2018-11-06T15:11:03.535Z,95226.00
2018-11-06T15:13:34.560Z,95223.00
2018-11-06T15:16:05.704Z,95225.00
2018-11-06T15:18:36.747Z,95231.00
2018-11-06T15:21:08.105Z,95234.00
2018-11-06T15:23:39.210Z,95234.00
2018-11-06T15:26:10.334Z,95237.00
2018-11-06T15:28:41.557Z,95238.00
2018-11-06T15:31:12.545Z,95249.00
2018-11-06T15:33:43.503Z,95245.00
2018-11-06T15:36:14.515Z,95247.00
2018-11-06T15:38:45.405Z,95247.00
2018-11-06T15:41:16.524Z,95252.00
2018-11-06T15:43:47.475Z,95255.00
2018-11-06T15:46:18.567Z,95257.00
2018-11-06T15:48:49.743Z,95261.00
2018-11-06T15:51:20.594Z,95265.00
2018-11-06T15:53:51.568Z,95264.00
2018-11-06T15:56:22.638Z,95261.00
2018-11-06T15:58:54.300Z,95267.00
2018-11-06T16:01:26.689Z,95268.00
2018-11-06T16:03:57.922Z,95266.00
2018-11-06T16:06:29.131Z,95278.00
2018-11-06T16:09:00.190Z,95281.00
2018-11-06T16:11:31.243Z,95283.00
2018-11-06T16:14:02.246Z,95278.00
2018-11-06T16:16:33.434Z,95285.00
2018-11-06T16:19:04.988Z,95292.00
2018-11-06T16:21:36.426Z,95295.00
2018-11-06T16:24:07.405Z,95294.00
2018-11-06T16:26:38.570Z,95298.00
2018-11-06T16:29:09.787Z,95302.00
2018-11-06T16:31:40.953Z,95301.00
2018-11-06T16:34:11.954Z,95310.00
2018-11-06T16:36:43.136Z,95308.00
2018-11-06T16:39:14.735Z,95312.00
2018-11-06T16:41:46.057Z,95309.00
2018-11-06T16:44:17.166Z,95318.00
2018-11-06T16:46:48.518Z,95326.00
2018-11-06T16:49:19.699Z,95325.00
2018-11-06T16:51:50.709Z,95316.00
2018-11-06T16:54:21.835Z,95321.00
2018-11-06T16:56:52.874Z,95323.00
2018-11-06T16:59:24.070Z,95328.00
2018-11-06T17:01:54.933Z,95331.00
2018-11-06T17:04:25.982Z,95327.00
2018-11-06T17:06:56.919Z,95327.00
2018-11-06T17:09:27.984Z,95327.00
2018-11-06T17:11:59.000Z,95328.00
2018-11-06T17:14:30.265Z,95328.00
2018-11-06T17:17:01.361Z,95335.00
2018-11-06T17:19:32.326Z,95341.00
2018-11-06T17:22:03.523Z,95339.00
2018-11-06T17:24:34.745Z,95341.00
2018-11-06T17:27:06.277Z,95343.00
2018-11-06T17:29:37.341Z,95346.00
2018-11-06T17:32:08.272Z,95345.00
2018-11-06T17:34:39.205Z,95347.00
2018-11-06T17:37:10.362Z,95358.00
2018-11-06T17:39:41.466Z,95356.00
2018-11-06T17:42:12.492Z,95355.00
2018-11-06T17:44:43.572Z,95358.00
2018-11-06T17:47:14.690Z,95355.00
2018-11-06T17:49:46.425Z,95357.00
2018-11-06T17:52:17.679Z,95360.00
2018-11-06T17:54:48.941Z,95356.00
2018-11-06T17:57:20.043Z,95357.00
2018-11-06T17:59:51.203Z,95358.00
2018-11-06T18:02:22.224Z,95364.00
2018-11-06T18:04:53.267Z,95369.00
2018-11-06T18:07:24.457Z,95369.00
2018-11-06T18:09:55.612Z,95375.00
2018-11-06T18:12:27.231Z,95373.00
2018-11-06T18:14:58.575Z,95375.00
2018-11-06T18:17:29.568Z,95375.00
2018-11-06T18:20:00.538Z,95372.00
2018-11-06T18:22:31.845Z,95369.00
2018-11-06T18:25:02.967Z,95371.00
2018-11-06T18:27:33.898Z,95371.00
2018-11-06T18:30:05.213Z,95378.00
2018-11-06T18:32:36.243Z,95378.00
2018-11-06T18:35:09.641Z,95378.00
2018-11-06T18:37:41.194Z,95378.00
2018-11-06T18:40:15.698Z,95375.00
2018-11-06T18:42:47.796Z,95371.00
2018-11-06T18:45:19.127Z,95375.00
2018-11-06T18:47:50.532Z,95382.00
2018-11-06T18:50:21.828Z,95380.00
2018-11-06T18:52:53.277Z,95379.00
2018-11-06T18:55:24.237Z,95385.00
2018-11-06T18:57:55.735Z,95380.00
2018-11-06T19:00:26.821Z,95372.00
2018-11-06T19:02:57.904Z,95380.00
2018-11-06T19:05:29.464Z,95382.00
2018-11-06T19:08:00.582Z,95379.00
2018-11-06T19:10:32.089Z,95381.00
2018-11-06T19:13:03.314Z,95384.00
2018-11-06T19:15:35.184Z,95391.00
2018-11-06T19:18:08.193Z,95383.00
2018-11-06T19:20:40.258Z,95394.00
2018-11-06T19:23:11.857Z,95392.00
2018-11-06T19:25:42.985Z,95392.00
2018-11-06T19:28:14.080Z,95390.00
2018-11-06T19:30:45.526Z,95392.00
2018-11-06T19:33:16.610Z,95389.00
2018-11-06T19:35:47.716Z,95391.00
2018-11-06T19:38:18.810Z,95392.00
2018-11-06T19:40:50.569Z,95390.00
2018-11-06T19:43:21.802Z,95389.00
2018-11-06T19:45:53.042Z,95391.00
2018-11-06T19:48:24.918Z,95387.00
2018-11-06T19:50:56.007Z,95383.00
2018-11-06T19:53:27.039Z,95394.00
2018-11-06T19:55:58.123Z,95387.00
2018-11-06T19:58:29.568Z,95378.00
2018-11-06T20:01:02.384Z,95384.00
2018-11-06T20:03:34.127Z,95385.00
2018-11-06T20:06:07.080Z,95390.00
2018-11-06T20:08:38.614Z,95388.00
2018-11-06T20:11:09.669Z,95382.00
2018-11-06T20:13:41.749Z,95385.00
2018-11-06T20:16:12.998Z,95385.00
2018-11-06T20:18:45.451Z,95384.00
2018-11-06T20:21:16.711Z,95386.00
2018-11-06T20:23:49.624Z,95386.00
2018-11-06T20:26:21.062Z,95389.00
2018-11-06T20:28:52.350Z,95384.00
2018-11-06T20:31:23.760Z,95390.00
2018-11-06T20:33:58.409Z,95386.00
2018-11-06T20:36:29.855Z,95386.00
2018-11-06T20:39:00.849Z,95387.00
2018-11-06T20:41:31.961Z,95388.00
2018-11-06T20:44:05.769Z,95388.00
2018-11-06T20:46:36.907Z,95390.00
2018-11-06T20:49:09.346Z,95384.00
2018-11-06T20:51:42.408Z,95383.00
2018-11-06T20:54:13.628Z,95384.00
2018-11-06T20:56:44.911Z,95378.00
2018-11-06T20:59:16.247Z,95381.00
2018-11-06T21:01:47.657Z,95382.00
2018-11-06T21:04:18.735Z,95375.00
2018-11-06T21:06:49.914Z,95381.00
2018-11-06T21:09:22.005Z,95382.00
2018-11-06T21:11:53.311Z,95388.00
2018-11-06T21:14:24.538Z,95389.00
2018-11-06T21:16:56.505Z,95389.00
2018-11-06T21:19:27.728Z,95388.00
2018-11-06T21:22:00.521Z,95389.00
2018-11-06T21:24:31.570Z,95392.00
2018-11-06T21:27:02.589Z,95393.00
2018-11-06T21:29:33.751Z,95393.00
2018-11-06T21:32:05.382Z,95388.00
2018-11-06T21:34:36.442Z,95390.00
2018-11-06T21:37:07.490Z,95395.00
2018-11-06T21:39:39.463Z,95398.00
2018-11-06T21:42:11.858Z,95403.00
2018-11-06T21:44:43.540Z,95403.00
2018-11-06T21:47:14.570Z,95398.00
2018-11-06T21:49:45.537Z,95396.00
2018-11-06T21:52:17.777Z,95400.00
2018-11-06T21:54:49.639Z,95390.00
2018-11-06T21:57:22.714Z,95398.00
2018-11-06T21:59:54.809Z,95393.00
2018-11-06T22:02:26.088Z,95393.00
2018-11-06T22:04:57.022Z,95399.00
2018-11-06T22:07:27.910Z,95393.00
2018-11-06T22:09:58.998Z,95394.00
2018-11-06T22:12:30.139Z,95397.00
2018-11-06T22:15:01.390Z,95397.00
2018-11-06T22:17:32.419Z,95399.00
2018-11-06T22:20:03.367Z,95401.00
2018-11-06T22:22:34.460Z,95397.00
2018-11-06T22:25:05.924Z,95394.00
2018-11-06T22:27:37.867Z,95392.00
2018-11-06T22:30:12.155Z,95393.00
2018-11-06T22:32:44.059Z,95395.00
2018-11-06T22:35:16.865Z,95388.00
2018-11-06T22:37:48.024Z,95392.00
2018-11-06T22:40:19.242Z,95396.00
2018-11-06T22:42:51.761Z,95397.00
2018-11-06T22:45:22.740Z,95393.00
2018-11-06T22:47:53.660Z,95393.00
2018-11-06T22:50:24.880Z,95394.00
2018-11-06T22:52:55.877Z,95392.00
2018-11-06T22:55:26.914Z,95395.00
2018-11-06T22:57:58.343Z,95396.00
2018-11-06T23:00:34.494Z,95392.00
2018-11-06T23:03:10.053Z,95394.00
2018-11-06T23:05:41.258Z,95392.00
2018-11-06T23:08:17.210Z,95395.00
2018-11-06T23:10:48.311Z,95398.00
2018-11-06T23:13:19.186Z,95398.00
2018-11-06T23:15:50.304Z,95401.00
2018-11-06T23:18:21.502Z,95402.00
2018-11-06T23:20:52.965Z,95400.00
2018-11-06T23:23:23.948Z,95402.00
2018-11-06T23:25:54.848Z,95404.00
2018-11-06T23:28:26.352Z,95401.00
2018-11-06T23:30:57.292Z,95399.00
2018-11-06T23:33:28.146Z,95398.00
2018-11-06T23:35:59.080Z,95402.00
2018-11-06T23:38:30.004Z,95405.00
2018-11-06T23:41:00.757Z,95402.00
2018-11-06T23:43:31.646Z,95408.00
2018-11-06T23:46:02.513Z,95401.00
2018-11-06T23:48:33.765Z,95404.00
2018-11-06T23:51:04.593Z,95399.00
2018-11-06T23:53:35.853Z,95398.00
2018-11-06T23:56:06.870Z,95400.00
2018-11-06T23:58:37.614Z,95405.00
